createdAt,value
2023-03-20T00:00:51.314Z,7.30
2023-03-20T00:03:54.776Z,5.87
2023-03-20T00:06:57.765Z,5.70
2023-03-20T00:10:01.938Z,5.75
2023-03-20T00:13:06.768Z,5.50
2023-03-20T00:16:11.350Z,5.95
2023-03-20T00:19:19.191Z,6.60
2023-03-20T00:22:23.315Z,5.18
2023-03-20T00:25:26.870Z,5.28
2023-03-20T00:28:48.572Z,5.37
2023-03-20T00:31:53.234Z,5.95
2023-03-20T00:34:56.723Z,5.50
2023-03-20T00:37:59.746Z,5.87
2023-03-20T00:41:04.010Z,5.32
2023-03-20T00:44:44.731Z,5.03
2023-03-20T00:47:51.581Z,5.90
2023-03-20T00:50:54.822Z,5.85
2023-03-20T00:53:58.253Z,5.62
2023-03-20T00:57:04.564Z,5.80
2023-03-20T01:00:14.697Z,6.20
2023-03-20T01:03:20.353Z,5.85
2023-03-20T01:06:23.861Z,6.55
2023-03-20T01:09:26.791Z,5.28
2023-03-20T01:12:30.094Z,6.47
2023-03-20T01:15:34.916Z,5.82
2023-03-20T01:21:43.181Z,5.65
2023-03-20T01:24:47.910Z,5.90
2023-03-20T01:27:52.781Z,6.32
2023-03-20T01:33:59.361Z,5.75
2023-03-20T01:37:03.409Z,5.53
2023-03-20T01:40:14.557Z,5.30
2023-03-20T01:43:20.214Z,5.57
2023-03-20T01:46:28.524Z,5.18
2023-03-20T01:50:24.142Z,5.40
2023-03-20T01:53:29.380Z,5.78
2023-03-20T01:56:37.382Z,6.10
2023-03-20T01:59:51.678Z,6.93
2023-03-20T02:02:56.975Z,6.62
2023-03-20T02:06:00.664Z,5.50
2023-03-20T02:09:05.361Z,5.62
2023-03-20T02:12:09.521Z,6.97
2023-03-20T02:15:15.540Z,5.68
2023-03-20T02:18:19.332Z,5.70
2023-03-20T02:22:05.586Z,6.10
2023-03-20T02:25:42.652Z,5.82
2023-03-20T02:28:49.723Z,5.72
2023-03-20T02:32:12.129Z,5.78
2023-03-20T02:35:26.233Z,5.30
2023-03-20T02:38:39.554Z,5.60
2023-03-20T02:41:48.119Z,5.37
2023-03-20T02:44:51.499Z,6.25
2023-03-20T02:48:13.054Z,5.20
2023-03-20T02:51:22.618Z,5.20
2023-03-20T02:54:32.428Z,5.28
2023-03-20T02:57:46.841Z,6.12
2023-03-20T03:01:21.413Z,4.82
2023-03-20T03:04:30.387Z,5.50
2023-03-20T03:07:35.652Z,5.53
2023-03-20T03:10:43.334Z,4.95
2023-03-20T03:13:49.880Z,5.30
2023-03-20T03:16:54.709Z,6.75
2023-03-20T03:20:02.023Z,5.90
2023-03-20T03:23:07.278Z,7.03
2023-03-20T03:26:14.980Z,6.65
2023-03-20T03:29:19.912Z,7.30
2023-03-20T03:32:26.954Z,7.47
2023-03-20T03:35:31.274Z,8.20
2023-03-20T03:38:51.930Z,7.53
2023-03-20T03:42:02.969Z,6.97
2023-03-20T03:45:19.656Z,7.12
2023-03-20T03:48:26.414Z,8.25
2023-03-20T03:51:31.456Z,8.25
2023-03-20T03:54:44.037Z,7.47
2023-03-20T03:57:54.300Z,8.55
2023-03-20T04:00:59.525Z,7.20
2023-03-20T04:04:05.596Z,7.43
2023-03-20T04:07:08.575Z,7.93
2023-03-20T04:10:12.463Z,8.45
2023-03-20T04:13:16.757Z,7.07
2023-03-20T04:16:21.988Z,7.55
2023-03-20T04:19:25.232Z,7.62
2023-03-20T04:22:29.357Z,9.30
2023-03-20T04:25:33.210Z,10.82
2023-03-20T04:28:36.641Z,9.63
2023-03-20T04:31:39.888Z,8.48
2023-03-20T04:34:43.292Z,8.48
2023-03-20T04:37:46.479Z,9.27
2023-03-20T04:40:50.049Z,10.13
2023-03-20T04:43:54.061Z,9.00
2023-03-20T04:46:59.337Z,8.25
2023-03-20T04:50:02.446Z,9.55
2023-03-20T04:53:06.832Z,7.47
2023-03-20T04:56:10.143Z,6.60
2023-03-20T04:59:13.587Z,7.95
2023-03-20T05:02:17.992Z,7.40
2023-03-20T05:05:21.559Z,7.05
2023-03-20T05:08:24.506Z,8.38
2023-03-20T05:11:30.390Z,7.85
2023-03-20T05:17:39.565Z,8.70
2023-03-20T05:20:42.888Z,9.55
2023-03-20T05:23:46.374Z,8.20
2023-03-20T05:26:49.962Z,7.45
2023-03-20T05:29:54.662Z,7.78
2023-03-20T05:32:58.239Z,7.93
2023-03-20T05:36:08.072Z,8.25
2023-03-20T05:39:11.805Z,8.50
2023-03-20T05:42:15.673Z,8.65
2023-03-20T05:45:19.698Z,8.64
2023-03-20T05:48:23.881Z,8.90
2023-03-20T05:51:29.923Z,8.45
2023-03-20T05:54:33.289Z,9.23
2023-03-20T05:57:37.867Z,13.20
2023-03-20T06:00:41.431Z,12.57
2023-03-20T06:03:49.904Z,13.10
2023-03-20T06:06:54.553Z,13.35
2023-03-20T06:10:00.273Z,13.40
2023-03-20T06:13:04.023Z,13.50
2023-03-20T06:16:09.308Z,13.82
2023-03-20T06:19:13.161Z,13.98
2023-03-20T06:22:16.890Z,14.82
2023-03-20T06:25:20.177Z,14.35
2023-03-20T06:28:23.464Z,14.82
2023-03-20T06:31:29.941Z,13.88
2023-03-20T06:34:34.169Z,13.77
2023-03-20T06:37:39.389Z,13.50
2023-03-20T06:40:43.355Z,13.40
2023-03-20T06:43:46.403Z,13.60
2023-03-20T06:46:50.145Z,13.07
2023-03-20T06:49:53.060Z,13.82
2023-03-20T06:52:57.486Z,12.37
2023-03-20T06:56:01.966Z,11.88
2023-03-20T06:59:05.318Z,12.13
2023-03-20T07:02:10.975Z,12.00
2023-03-20T07:05:16.168Z,11.35
2023-03-20T07:08:19.613Z,11.20
2023-03-20T07:11:25.267Z,11.60
2023-03-20T07:14:28.988Z,10.75
2023-03-20T07:17:33.959Z,10.68
2023-03-20T07:20:36.872Z,10.45
2023-03-20T07:23:41.646Z,9.68
2023-03-20T07:26:46.449Z,10.07
2023-03-20T07:29:51.562Z,9.35
2023-03-20T07:32:54.690Z,9.10
2023-03-20T07:35:59.407Z,9.35
2023-03-20T07:39:03.089Z,8.50
2023-03-20T07:42:06.903Z,9.82
2023-03-20T07:45:11.695Z,10.23
2023-03-20T07:48:14.983Z,9.27
2023-03-20T07:51:17.948Z,9.38
2023-03-20T07:54:21.358Z,10.05
2023-03-20T07:57:24.373Z,9.95
2023-03-20T08:00:28.412Z,9.40
2023-03-20T08:03:32.182Z,8.57
2023-03-20T08:06:35.564Z,8.98
2023-03-20T08:09:39.039Z,9.35
2023-03-20T08:12:42.069Z,9.27
2023-03-20T08:15:47.315Z,10.25
2023-03-20T08:21:54.074Z,9.85
2023-03-20T08:24:56.956Z,9.55
2023-03-20T08:28:01.887Z,9.88
2023-03-20T08:31:08.965Z,10.98
2023-03-20T08:34:12.532Z,10.90
2023-03-20T08:37:16.044Z,11.07
2023-03-20T08:40:19.448Z,11.55
2023-03-20T08:43:22.627Z,11.25
2023-03-20T08:46:25.885Z,8.40
2023-03-20T08:49:28.830Z,9.65
2023-03-20T08:52:32.043Z,10.20
2023-03-20T08:55:35.673Z,8.68
2023-03-20T08:58:39.263Z,7.50
2023-03-20T09:01:49.818Z,7.28
2023-03-20T09:04:53.551Z,7.32
2023-03-20T09:07:56.554Z,7.68
2023-03-20T09:11:02.106Z,7.15
2023-03-20T09:14:05.882Z,7.68
2023-03-20T09:17:09.224Z,7.35
2023-03-20T09:20:12.829Z,7.65
2023-03-20T09:23:16.273Z,7.40
2023-03-20T09:26:22.467Z,7.57
2023-03-20T09:29:26.116Z,6.78
2023-03-20T09:32:29.004Z,7.32
2023-03-20T09:35:33.286Z,7.07
2023-03-20T09:38:36.213Z,7.20
2023-03-20T09:41:53.144Z,7.12
2023-03-20T09:45:32.614Z,6.65
2023-03-20T09:48:43.871Z,7.05
2023-03-20T09:52:05.127Z,6.82
2023-03-20T09:55:14.958Z,6.78
2023-03-20T09:58:31.726Z,7.55
2023-03-20T10:01:55.114Z,6.90
2023-03-20T10:04:58.931Z,6.72
2023-03-20T10:08:03.176Z,7.87
2023-03-20T10:11:23.054Z,7.40
2023-03-20T10:14:40.307Z,6.82
2023-03-20T10:17:43.437Z,6.45
2023-03-20T10:20:56.442Z,7.05
2023-03-20T10:24:07.299Z,7.90
2023-03-20T10:27:26.268Z,7.62
2023-03-20T10:30:44.780Z,7.62
2023-03-20T10:34:06.230Z,7.62
2023-03-20T10:37:37.374Z,6.70
2023-03-20T10:40:43.090Z,7.40
2023-03-20T10:43:48.669Z,7.22
2023-03-20T10:46:54.415Z,8.25
2023-03-20T10:50:02.013Z,8.00
2023-03-20T10:53:24.838Z,7.12
2023-03-20T10:56:29.939Z,7.22
2023-03-20T10:59:42.675Z,7.65
2023-03-20T11:02:46.760Z,7.37
2023-03-20T11:06:14.092Z,6.75
2023-03-20T11:09:22.435Z,7.47
2023-03-20T11:12:25.466Z,7.30
2023-03-20T11:15:34.686Z,7.28
2023-03-20T11:18:38.318Z,7.53
2023-03-20T11:22:02.263Z,7.75
2023-03-20T11:25:05.595Z,7.25
2023-03-20T11:28:28.686Z,6.45
2023-03-20T11:31:36.016Z,7.30
2023-03-20T11:34:41.176Z,7.22
2023-03-20T11:37:48.074Z,7.35
2023-03-20T11:40:54.623Z,7.55
2023-03-20T11:43:57.620Z,7.40
2023-03-20T11:47:04.925Z,8.43
2023-03-20T11:50:35.558Z,8.05
2023-03-20T11:53:56.360Z,8.32
2023-03-20T11:57:01.944Z,8.95
2023-03-20T12:00:12.851Z,8.70
2023-03-20T12:03:34.918Z,8.35
2023-03-20T12:06:42.592Z,9.02
2023-03-20T12:09:48.563Z,8.82
2023-03-20T12:13:04.126Z,8.98
2023-03-20T12:16:12.913Z,8.57
2023-03-20T12:19:19.738Z,8.95
2023-03-20T12:22:27.538Z,9.20
2023-03-20T12:25:37.618Z,9.07
2023-03-20T12:28:48.906Z,8.77
2023-03-20T12:32:10.710Z,9.18
2023-03-20T12:35:18.373Z,8.38
2023-03-20T12:38:32.345Z,9.18
2023-03-20T12:41:41.618Z,8.55
2023-03-20T12:44:49.705Z,9.23
2023-03-20T12:48:05.418Z,8.63
2023-03-20T12:51:47.325Z,9.57
2023-03-20T12:55:10.702Z,8.27
2023-03-20T12:58:13.543Z,8.77
2023-03-20T13:01:35.044Z,10.23
2023-03-20T13:04:51.363Z,9.30
2023-03-20T13:08:02.919Z,9.73
2023-03-20T13:11:20.275Z,9.35
2023-03-20T13:14:38.221Z,10.48
2023-03-20T13:17:56.677Z,9.77
2023-03-20T13:21:06.284Z,9.70
2023-03-20T13:24:46.496Z,9.52
2023-03-20T13:27:54.954Z,8.88
2023-03-20T13:31:03.481Z,8.60
2023-03-20T13:34:09.957Z,9.30
2023-03-20T13:37:23.452Z,9.13
2023-03-20T13:40:29.976Z,8.93
2023-03-20T13:43:41.801Z,9.68
2023-03-20T13:46:49.432Z,7.57
2023-03-20T13:49:57.499Z,6.97
2023-03-20T13:53:19.721Z,7.00
2023-03-20T13:56:26.252Z,7.12
2023-03-20T13:59:50.996Z,7.45
2023-03-20T14:03:22.150Z,7.32
2023-03-20T14:06:31.480Z,7.57
2023-03-20T14:09:37.123Z,7.53
2023-03-20T14:12:40.476Z,6.50
2023-03-20T14:15:57.384Z,5.20
2023-03-20T14:19:29.127Z,5.28
2023-03-20T14:22:36.874Z,5.80
2023-03-20T14:25:41.982Z,4.72
2023-03-20T14:29:03.215Z,5.60
2023-03-20T14:32:15.820Z,5.37
2023-03-20T14:35:23.897Z,5.47
2023-03-20T14:38:32.053Z,5.90
2023-03-20T14:42:04.659Z,4.93
2023-03-20T14:45:16.183Z,4.43
2023-03-20T14:48:32.825Z,6.07
2023-03-20T14:51:44.880Z,5.15
2023-03-20T14:54:55.774Z,4.97
2023-03-20T14:58:04.019Z,4.80
2023-03-20T15:01:10.446Z,4.97
2023-03-20T15:04:25.941Z,5.62
2023-03-20T15:07:31.116Z,6.32
2023-03-20T15:10:37.610Z,6.85
2023-03-20T15:13:41.635Z,5.90
2023-03-20T15:19:51.156Z,5.93
2023-03-20T15:23:02.099Z,5.55
2023-03-20T15:26:05.421Z,5.68
2023-03-20T15:29:13.119Z,5.55
2023-03-20T15:32:16.224Z,4.97
2023-03-20T15:35:23.417Z,3.77
2023-03-20T15:38:33.584Z,2.97
2023-03-20T15:41:38.467Z,2.90
2023-03-20T15:44:43.907Z,2.85
2023-03-20T15:47:47.203Z,2.67
2023-03-20T15:50:56.012Z,2.60
2023-03-20T15:53:59.358Z,3.05
2023-03-20T15:57:02.658Z,3.53
2023-03-20T16:00:10.309Z,3.13
2023-03-20T16:03:21.530Z,3.33
2023-03-20T16:06:24.881Z,3.10
2023-03-20T16:09:28.721Z,3.12
2023-03-20T16:12:33.029Z,3.63
2023-03-20T16:15:36.523Z,3.60
2023-03-20T16:18:39.991Z,3.20
2023-03-20T16:21:59.076Z,3.30
2023-03-20T16:25:02.571Z,3.03
2023-03-20T16:28:09.198Z,2.95
2023-03-20T16:31:18.980Z,3.10
2023-03-20T16:34:26.748Z,3.25
2023-03-20T16:37:32.421Z,3.40
2023-03-20T16:40:38.340Z,3.80
2023-03-20T16:43:41.559Z,3.35
2023-03-20T16:47:02.994Z,4.45
2023-03-20T16:50:12.839Z,3.78
2023-03-20T16:53:19.614Z,3.80
2023-03-20T16:56:29.142Z,3.72
2023-03-20T16:59:32.394Z,3.78
2023-03-20T17:02:41.217Z,4.68
2023-03-20T17:06:18.766Z,3.95
2023-03-20T17:09:33.569Z,5.10
2023-03-20T17:12:39.380Z,4.03
2023-03-20T17:15:42.563Z,4.70
2023-03-20T17:18:47.559Z,4.45
2023-03-20T17:21:51.325Z,4.18
2023-03-20T17:24:54.749Z,5.20
2023-03-20T17:27:58.113Z,4.05
2023-03-20T17:31:05.357Z,4.50
2023-03-20T17:34:14.288Z,4.68
2023-03-20T17:37:29.955Z,4.25
2023-03-20T17:40:33.446Z,4.20
2023-03-20T17:43:38.224Z,4.47
2023-03-20T17:46:56.832Z,4.65
2023-03-20T17:50:04.296Z,4.93
2023-03-20T17:53:20.884Z,4.32
2023-03-20T17:56:31.219Z,6.45
2023-03-20T17:59:35.270Z,5.45
2023-03-20T18:02:39.213Z,5.87
2023-03-20T18:05:43.627Z,5.25
2023-03-20T18:08:48.900Z,5.75
2023-03-20T18:11:54.157Z,6.47
2023-03-20T18:14:58.246Z,6.60
2023-03-20T18:18:01.912Z,14.40
2023-03-20T18:21:05.744Z,11.30
2023-03-20T18:24:10.051Z,11.10
2023-03-20T18:27:13.903Z,36.05
2023-03-20T18:30:22.846Z,56.40
2023-03-20T18:33:28.347Z,20.08
2023-03-20T18:36:35.744Z,7.20
2023-03-20T18:39:41.561Z,9.00
2023-03-20T18:42:48.062Z,7.00
2023-03-20T18:45:53.023Z,7.60
2023-03-20T18:48:59.111Z,6.65
2023-03-20T18:52:05.256Z,9.05
2023-03-20T18:55:10.585Z,10.27
2023-03-20T18:58:26.863Z,18.20
2023-03-20T19:01:35.070Z,18.67
2023-03-20T19:04:39.562Z,27.15
2023-03-20T19:07:48.471Z,7.82
2023-03-20T19:10:53.918Z,7.85
2023-03-20T19:14:03.139Z,8.73
2023-03-20T19:17:07.369Z,8.13
2023-03-20T19:20:36.707Z,10.93
2023-03-20T19:23:41.556Z,8.25
2023-03-20T19:26:47.168Z,7.55
2023-03-20T19:29:51.690Z,7.80
2023-03-20T19:32:57.473Z,7.55
2023-03-20T19:36:03.992Z,7.30
2023-03-20T19:39:17.291Z,9.00
2023-03-20T19:42:52.849Z,12.48
2023-03-20T19:45:59.460Z,11.30
2023-03-20T19:49:04.904Z,16.92
2023-03-20T19:52:19.147Z,17.60
2023-03-20T19:55:25.874Z,21.23
2023-03-20T19:58:30.532Z,9.35
2023-03-20T20:01:34.597Z,11.65
2023-03-20T20:04:38.998Z,22.10
2023-03-20T20:11:07.632Z,7.63
2023-03-20T20:14:14.811Z,8.63
2023-03-20T20:17:20.976Z,23.35
2023-03-20T20:20:25.734Z,29.33
2023-03-20T20:23:31.284Z,23.02
2023-03-20T20:26:40.550Z,18.08
2023-03-20T20:29:55.181Z,27.30
2023-03-20T20:33:03.512Z,27.43
2023-03-20T20:36:58.946Z,23.95
2023-03-20T20:39:35.309Z,19.77
2023-03-20T20:42:40.608Z,18.60
2023-03-20T20:45:44.731Z,9.88
2023-03-20T20:48:50.474Z,10.63
2023-03-20T20:52:01.934Z,19.15
2023-03-20T20:55:21.764Z,11.95
2023-03-20T20:58:27.801Z,14.43
2023-03-20T21:01:32.973Z,13.68
2023-03-20T21:04:38.968Z,20.60
2023-03-20T21:07:44.140Z,17.30
2023-03-20T21:10:48.012Z,10.13
2023-03-20T21:13:52.284Z,8.80
2023-03-20T21:17:01.668Z,9.15
2023-03-20T21:20:07.737Z,8.95
2023-03-20T21:23:12.534Z,17.58
2023-03-20T21:29:19.909Z,16.95
2023-03-20T21:32:24.239Z,10.80
2023-03-20T21:35:27.470Z,10.48
2023-03-20T21:39:05.767Z,9.10
2023-03-20T21:41:54.025Z,9.07
2023-03-20T21:45:53.466Z,16.20
2023-03-20T21:49:12.590Z,13.95
2023-03-20T21:59:12.650Z,9.57
2023-03-20T22:02:20.075Z,9.52
2023-03-20T22:06:01.947Z,19.90
2023-03-20T22:09:48.502Z,21.77
2023-03-20T22:16:15.843Z,13.35
2023-03-20T22:19:45.860Z,19.90
2023-03-20T22:23:09.361Z,22.80
2023-03-20T22:30:22.187Z,22.62
2023-03-20T22:33:58.501Z,60.00
2023-03-20T22:46:47.976Z,13.82
2023-03-20T22:49:50.988Z,10.63
2023-03-20T22:52:55.783Z,15.15
2023-03-20T22:55:59.264Z,15.30
2023-03-20T22:59:03.028Z,11.48
2023-03-20T23:02:05.934Z,13.10
2023-03-20T23:05:09.680Z,17.95
2023-03-20T23:08:12.587Z,29.85
2023-03-20T23:11:17.757Z,23.30
2023-03-20T23:14:22.314Z,18.48
2023-03-20T23:17:27.164Z,23.15
2023-03-20T23:20:30.424Z,23.80
2023-03-20T23:23:33.699Z,13.10
2023-03-20T23:26:36.558Z,8.77
2023-03-20T23:29:39.999Z,9.00
2023-03-20T23:32:43.039Z,13.30
2023-03-20T23:35:47.440Z,16.90
2023-03-20T23:38:50.473Z,17.17
2023-03-20T23:42:27.610Z,14.87
2023-03-20T23:45:20.823Z,9.80
2023-03-20T23:48:24.565Z,16.02
2023-03-20T23:51:27.457Z,22.27
2023-03-20T23:54:30.640Z,16.27
2023-03-20T23:57:33.546Z,9.95
